Onweer radar Meer informatie blitzortung!


Regen radar Meer informatie rain snow radar



METAR rapporten vliegvelden

   
EHVK - Volkel Rnlafb, Netherlands
Afstand tot: ZW 18 km
Gewijzigd: 04-08-2020 03:55
Helder  
Helder  
   Wind: varieert 1.9 km/h
Wind: varieert 1.9 km/h
Temperatuur: 12°C
Dauwpunt: 12°C
Vochtigheid: 100%
Barometer: 1015 hPa
Bewolking: Helder
Zicht: meer dan 10 km
Bewolking: Helder
EHVK 040155Z AUTO VRB01KT 9999 NCD 12/12 Q1015 BLU
EDLV - Niederrhein, Germany
Afstand tot: ZO 25 km
Gewijzigd: 03-08-2020 23:50
Verouderd
Helder  
Helder  
   Wind: varieert 3.7 km/h
Wind: varieert 3.7 km/h
Temperatuur: 16°C
Dauwpunt: 12°C
Vochtigheid: 77%
Barometer: 1015 hPa
Zicht: meer dan 10 km
Bewolking: Helder
EDLV 032150Z VRB02KT CAVOK 16/12 Q1015
EHDL - Deelen Rnlafb, Netherlands
Afstand tot: N 35 km
Gewijzigd: 04-08-2020 03:55
Helder  
Helder  
   Wind: Noorden 1.9 km/h
Wind: Noorden 1.9 km/h
Temperatuur: 10°C
Dauwpunt: 10°C
Vochtigheid: 100%
Barometer: 1015 hPa
Bewolking: Helder
Zicht: meer dan 10 km
Bewolking: Helder
EHDL 040155Z AUTO 36001KT 9999 NCD 10/10 Q1015 BLU
EHEH - Eindhoven Rnlafb, Netherlands
Afstand tot: ZW 48 km
Gewijzigd: 04-08-2020 03:55
Helder  
Helder  
   Wind: Westen 5.6 km/h
Wind: Westen 5.6 km/h
Temperatuur: 11°C
Dauwpunt: 10°C
Vochtigheid: 94%
Barometer: 1016 hPa
Bewolking: Helder
Zicht: meer dan 10 km
Bewolking: Helder
EHEH 040155Z AUTO 28003KT 200V300 9999 NCD 11/10 Q1016 BLU
EHGR - Gilze-Rijen Rnla, Netherlands
Afstand tot: WZW 70 km
Gewijzigd: 04-08-2020 03:56
Mist, Helder  
Mist, Helder  
   Wind: Westen 1.9 km/h
Wind: Westen 1.9 km/h
Temperatuur: 10°C
Dauwpunt: 9°C
Vochtigheid: 94%
Barometer: 1016 hPa
Bewolking: Helder
Zicht: 0.5 km
Bewolking: Helder
EHGR 040156Z AUTO 27001KT 0500 FG NCD 10/09 Q1016 RED
EBBL - Kleine-Brogel(Ba, Belgium
Afstand tot: ZZW 71 km
Gewijzigd: 04-08-2020 03:55
Helder  
Helder  
   Wind: varieert 3.7 km/h
Wind: varieert 3.7 km/h
Temperatuur: 12°C
Dauwpunt: 11°C
Vochtigheid: 94%
Barometer: 1016 hPa
Bewolking: Helder
Zicht: 8 km
Bewolking: Helder
EBBL 040155Z AUTO VRB02KT 8000 NCD 12/11 Q1016 BLU

Script ontwikkeld door  Saratoga-weather.org Aangepast voor de template door  Weerstation Leuven

U vindt ons ook hier:

UK Metoffice

European Weather Network

WeatherCloud

Weather Underground

AWEKAS

Apparatuur in gebruik:

Weerstation
Davis VP2

Weerprogramma
Meteobridge

Weercomputer
Asus WL -330N3G

Webleverancier
Ongekend.nl

Davis VP2

Meteobridge

Asus WL -330N3G

Ongekend.nl